Arvaiheer, Mongolia
Current Conditions -  °F | °C
As of 9:00 PM on Thursday 23 Oct 2014 (Local Time) from ZMUB Reporting Station
Scattered Clouds Scattered Clouds  
Wind Chill: 41°   Ceiling: Unl
Heat Index: 41°   Visibility: 6mi
Dew Point: 23°   Wind: 2mph
Humidity: 49%   Direction: NA
Pressure: 29.77"   Gusts: NA
Location:  46.27°N, 102.78°E
Report Text: ZMUB 231300Z VRB01MPS 9999 SCT033 SCT100 05/M05 Q1008 NOSIG RMK QFE649.3 51 NT
Loading
Personal Weather Stations






























Interactive Weather Map
Tropical Storm Tracking
New forecast layout! Learn more

10-Day Weather Forecast

Advertisements
Track Severe Weather on mobile